NCAR-RAP Real-Time Weather Data

Output produced by METARs form (10 April 2020  07:28 UTC)
found at http://weather.rap.ucar.edu/surface/
 
KECG 100654Z AUTO 30004KT 10SM CLR 09/03 A2962 RMK AO2 SLP031 T00940033